METAR AND TAF INFORMATION
METAR FOR EKSB
ADDS - METARS form results

(2308 UTC 04 August 2021)
Data provider http://aviationweather.gov/metar/data/
 
METAR text: EKSB 042250Z AUTO 09002KT 9999 OVC086/// 15/13 Q1014
Conditions at: EKSB (SONDERBORG AIRPO, DK) observed 2250 UTC 04 August 2021
Temperature: 15.0°C (59°F)
Dewpoint: 13.0°C (55°F) [RH = 88%]
Pressure (altimeter): 29.94 inches Hg (1014.0 mb)
Winds: from the E (90 degrees) at 2 MPH (2 knots; 1.0 m/s)
Visibility: 6 or more miles (10+ km)
Ceiling: 8600 feet AGL
Clouds: overcast cloud deck at 8600 feet AGL
Weather: no significant weather observed at this time

METAR text: EKSB 042220Z AUTO 08001KT 9999 BKN082/// 15/12 Q1014
Conditions at: EKSB (SONDERBORG AIRPO, DK) observed 2220 UTC 04 August 2021
Temperature: 15.0°C (59°F)
Dewpoint: 12.0°C (54°F) [RH = 82%]
Pressure (altimeter): 29.94 inches Hg (1014.0 mb)
Winds: from the E (80 degrees) at 1 MPH (1 knots; 0.5 m/s)
Visibility: 6 or more miles (10+ km)
Ceiling: 8200 feet AGL
Clouds: broken clouds at 8200 feet AGL
Weather: no significant weather observed at this time

Forecast for: EKSB (SONDERBORG AIRPO, DK)
Text: TAF EKSB 041124Z 0412/0418 VRB02KT 9999 SCT030
Forecast period: 1200 to 1800 UTC 04 August 2021
Forecast type: FROM: standard forecast or significant change
Winds: variable direction winds at 2 MPH (2 knots; 1.0 m/s)
Visibility: 6 or more miles (10+ km)
Ceiling: at least 12,000 feet AGL
Clouds: scattered clouds at 3000 feet AGL
Weather: no significant weather forecast for this period

 AIRPORT MAP

 RUNWAY INFORMATION
Runway 14 Runway length 5895 ft Runway width 98 ft
Runway elevation 12 ft Runway displaced threshold 0 ft Runway heading 139
Runway 32 Runway length 5895 ft Runway width 98 ft
Runway elevation 21 ft Runway displaced threshold 0 ft Runway heading 319

 AIRPORT FREQUENCIES
Type AFIS Name AFIS Frequency 126.4 MHZ

 AIRPORT NEAR NAVIGATION AIDS





Powered by Virtual Airlines Manager

Maps by Rafael Santos